Wetterdaten: Woche 22.12.03 - 28.12.03 (KW52)
Datum Zeit Temperatur Luftfeuchte Luftdruck Regenmenge Wind Richtung Taupunkt Windchill
22.12.2003 00:00 0.3 C 91 % 1013.1 hPa 1.0 l/m 3.1 km/h (1 Bft) SO -0.9 C -0.5 C
22.12.2003 01:00 0.5 C 92 % 1012.8 hPa 0.7 l/m 4.3 km/h (1 Bft) SO -0.7 C -0.8 C
22.12.2003 02:00 0.9 C 92 % 1012.8 hPa 0.0 l/m 2.2 km/h (1 Bft) SW -0.3 C 0.4 C
22.12.2003 03:00 1.0 C 92 % 1012.8 hPa 0.0 l/m 4.2 km/h (1 Bft) SO -0.2 C -0.2 C
22.12.2003 04:00 1.2 C 92 % 1012.7 hPa 0.0 l/m 5.6 km/h (1 Bft) W-NW 0.1 C -0.5 C
22.12.2003 05:00 1.3 C 92 % 1012.1 hPa 0.0 l/m 12.6 km/h (3 Bft) W-NW 0.1 C -2.2 C
22.12.2003 06:00 1.2 C 91 % 1012.4 hPa 0.0 l/m 7.0 km/h (2 Bft) W -0.2 C -0.6 C
22.12.2003 07:00 0.9 C 89 % 1012.8 hPa 0.0 l/m 1.4 km/h (1 Bft) W-NW -0.6 C 0.6 C
22.12.2003 08:00 0.2 C 89 % 1013.7 hPa 0.0 l/m 0.5 km/h (0 Bft) W -1.3 C 0.2 C
22.12.2003 09:00 0.3 C 90 % 1014.8 hPa 0.0 l/m 1.1 km/h (0 Bft) SO -1.2 C 0.1 C
22.12.2003 10:00 1.3 C 87 % 1015.8 hPa 0.0 l/m 7.8 km/h (2 Bft) NW -0.7 C -0.5 C
22.12.2003 11:00 1.6 C 82 % 1016.6 hPa 0.0 l/m 17.9 km/h (3 Bft) W-NW -1.1 C -2.7 C
22.12.2003 12:00 1.8 C 80 % 1017.0 hPa 0.0 l/m 21.6 km/h (4 Bft) W-NW -1.3 C -3.1 C
22.12.2003 13:00 1.9 C 78 % 1017.7 hPa 0.0 l/m 13.6 km/h (3 Bft) W-NW -1.5 C -1.3 C
22.12.2003 14:00 1.8 C 70 % 1018.2 hPa 0.0 l/m 11.1 km/h (2 Bft) NW -3.2 C -0.9 C
22.12.2003 15:00 1.3 C 72 % 1019.7 hPa 0.0 l/m 13.3 km/h (3 Bft) W-NW -3.3 C -2.0 C
22.12.2003 16:00 -0.5 C 80 % 1021.5 hPa 0.0 l/m 7.0 km/h (2 Bft) NW -3.6 C -2.1 C
22.12.2003 17:00 -2.0 C 80 % 1022.4 hPa 0.0 l/m 2.5 km/h (1 Bft) W-NW -5.1 C -2.8 C
22.12.2003 18:00 -2.7 C 83 % 1023.5 hPa 0.0 l/m 6.1 km/h (2 Bft) NO -5.1 C -4.7 C
22.12.2003 19:00 -2.9 C 83 % 1024.3 hPa 0.0 l/m 4.2 km/h (1 Bft) NO -5.3 C -4.3 C
22.12.2003 20:00 -2.3 C 80 % 1025.3 hPa 0.0 l/m 3.7 km/h (1 Bft) W-NW -5.2 C -3.5 C
22.12.2003 21:00 -1.4 C 78 % 1026.2 hPa 0.0 l/m 6.4 km/h (2 Bft) W-NW -4.7 C -3.3 C
22.12.2003 22:00 -2.0 C 80 % 1026.4 hPa 0.0 l/m 1.4 km/h (1 Bft) O -5.0 C -2.4 C
22.12.2003 23:00 -3.5 C 83 % 1026.4 hPa 0.0 l/m 1.9 km/h (1 Bft) O -5.9 C -3.7 C
23.12.2003 00:00 -3.6 C 86 % 1026.8 hPa 0.0 l/m 0.4 km/h (0 Bft) O -5.6 C -3.6 C
23.12.2003 01:00 -3.6 C 85 % 1027.4 hPa 0.0 l/m 4.1 km/h (1 Bft) O-SO -5.7 C -5.1 C
23.12.2003 02:00 -4.9 C 78 % 1027.5 hPa 0.0 l/m 0.5 km/h (0 Bft) W -8.2 C -4.9 C
23.12.2003 03:00 -6.2 C 79 % 1028.5 hPa 0.0 l/m 2.5 km/h (1 Bft) W-NW -9.2 C -7.4 C
23.12.2003 04:00 -6.5 C 81 % 1029.0 hPa 0.0 l/m 8.6 km/h (2 Bft) O-SO -9.2 C -10.5 C
23.12.2003 05:00 -6.8 C 81 % 1029.5 hPa 0.0 l/m 9.2 km/h (2 Bft) O-SO -9.5 C -11.1 C
23.12.2003 06:00 -7.3 C 80 % 1029.5 hPa 0.0 l/m 7.2 km/h (2 Bft) O-SO -10.1 C -10.9 C
23.12.2003 07:00 -7.7 C 80 % 1030.0 hPa 0.0 l/m 5.0 km/h (1 Bft) O-SO -10.5 C -10.0 C
23.12.2003 08:00 -7.8 C 80 % 1030.5 hPa 0.0 l/m 1.6 km/h (1 Bft) O-SO -10.8 C -8.7 C
23.12.2003 09:00 -6.2 C 82 % 1030.5 hPa 0.0 l/m 0.2 km/h (0 Bft) O-SO -8.8 C -6.3 C
23.12.2003 10:00 -5.1 C 83 % 1030.5 hPa 0.0 l/m 0.0 km/h (0 Bft) N -7.5 C -5.1 C
23.12.2003 11:00 -3.7 C 81 % 1030.3 hPa 0.0 l/m 4.0 km/h (1 Bft) O-SO -6.4 C -5.1 C
23.12.2003 12:00 -2.2 C 76 % 1029.5 hPa 0.0 l/m 4.9 km/h (1 Bft) O-SO -5.8 C -3.8 C
23.12.2003 13:00 -0.8 C 75 % 1029.5 hPa 0.0 l/m 6.1 km/h (2 Bft) SO -4.8 C -2.6 C
23.12.2003 14:00 -0.7 C 73 % 1028.7 hPa 0.0 l/m 2.4 km/h (1 Bft) S-SO -4.9 C -1.3 C
23.12.2003 15:00 -0.0 C 66 % 1028.7 hPa 0.0 l/m 1.9 km/h (1 Bft) S-SO -5.7 C -0.6 C
23.12.2003 16:00 -2.3 C 71 % 1028.5 hPa 0.0 l/m 0.7 km/h (0 Bft) S-SW -6.9 C -2.5 C
23.12.2003 17:00 -3.2 C 74 % 1028.5 hPa 0.0 l/m 7.5 km/h (2 Bft) SO -7.2 C -6.3 C
23.12.2003 18:00 -4.7 C 77 % 1029.3 hPa 0.0 l/m 5.9 km/h (2 Bft) O-SO -8.1 C -7.2 C
23.12.2003 19:00 -5.4 C 79 % 1029.5 hPa 0.0 l/m 6.9 km/h (2 Bft) O-SO -8.4 C -8.3 C
23.12.2003 20:00 -6.4 C 79 % 1029.5 hPa 0.0 l/m 6.5 km/h (2 Bft) O-SO -9.4 C -9.5 C
23.12.2003 21:00 -7.0 C 80 % 1029.5 hPa 0.0 l/m 3.2 km/h (1 Bft) O-SO -9.9 C -8.4 C
23.12.2003 22:00 -7.5 C 79 % 1030.5 hPa 0.0 l/m 0.3 km/h (0 Bft) O-SO -10.4 C -7.5 C
23.12.2003 23:00 -7.7 C 79 % 1030.5 hPa 0.0 l/m 2.8 km/h (1 Bft) O-SO -10.7 C -8.7 C
24.12.2003 00:00 -8.4 C 78 % 1030.5 hPa 0.0 l/m 1.5 km/h (1 Bft) O-SO -11.6 C -8.9 C
24.12.2003 01:00 -8.6 C 78 % 1030.5 hPa 0.0 l/m 2.0 km/h (1 Bft) O-SO -11.8 C -9.3 C
24.12.2003 02:00 -9.1 C 76 % 1031.2 hPa 0.0 l/m 0.0 km/h (0 Bft) N -12.5 C -9.1 C
24.12.2003 03:00 -9.2 C 77 % 1031.6 hPa 0.0 l/m 0.8 km/h (0 Bft) O-SO -12.5 C -9.2 C
24.12.2003 04:00 -9.5 C 76 % 1031.6 hPa 0.0 l/m 0.8 km/h (0 Bft) O-SO -12.8 C -9.5 C
24.12.2003 05:00 -9.9 C 75 % 1031.6 hPa 0.0 l/m 0.1 km/h (0 Bft) N -13.4 C -9.9 C
24.12.2003 06:00 -10.3 C 74 % 1032.6 hPa 0.0 l/m 0.1 km/h (0 Bft) N -14.0 C -10.3 C
24.12.2003 07:00 -10.0 C 75 % 1032.6 hPa 0.0 l/m 0.0 km/h (0 Bft) N -13.5 C -10.0 C
24.12.2003 08:00 -10.0 C 75 % 1032.8 hPa 0.0 l/m 0.0 km/h (0 Bft) N -13.6 C -10.0 C
24.12.2003 09:00 -8.7 C 82 % 1033.7 hPa 0.0 l/m 0.0 km/h (0 Bft) N -11.2 C -8.7 C
24.12.2003 10:00 -7.4 C 80 % 1033.7 hPa 0.0 l/m 1.1 km/h (0 Bft) NO -10.3 C -7.9 C
24.12.2003 11:00 -5.9 C 72 % 1033.5 hPa 0.0 l/m 1.4 km/h (1 Bft) NW -10.1 C -6.3 C
24.12.2003 12:00 -4.1 C 65 % 1032.6 hPa 0.0 l/m 2.9 km/h (1 Bft) O-SO -9.7 C -5.0 C
24.12.2003 13:00 -2.5 C 63 % 1032.6 hPa 0.0 l/m 12.9 km/h (3 Bft) O-SO -8.6 C -7.0 C
24.12.2003 14:00 -2.0 C 56 % 1032.6 hPa 0.0 l/m 12.9 km/h (3 Bft) O-SO -9.5 C -6.4 C
24.12.2003 15:00 -2.3 C 55 % 1032.6 hPa 0.0 l/m 11.0 km/h (2 Bft) O-SO -10.1 C -6.3 C
24.12.2003 16:00 -4.0 C 62 % 1033.0 hPa 0.0 l/m 10.2 km/h (2 Bft) O-SO -10.3 C -8.1 C
24.12.2003 17:00 -5.4 C 65 % 1033.7 hPa 0.0 l/m 9.2 km/h (2 Bft) O-SO -10.9 C -9.2 C
24.12.2003 18:00 -6.2 C 65 % 1033.7 hPa 0.0 l/m 6.1 km/h (2 Bft) O-SO -11.6 C -8.8 C
24.12.2003 19:00 -7.4 C 69 % 1033.7 hPa 0.0 l/m 2.0 km/h (1 Bft) O-SO -12.0 C -8.1 C
24.12.2003 20:00 -8.0 C 73 % 1033.7 hPa 0.0 l/m 2.1 km/h (1 Bft) O-SO -12.0 C -9.1 C
24.12.2003 21:00 -8.5 C 73 % 1033.4 hPa 0.0 l/m 0.7 km/h (0 Bft) O-SO -12.4 C -8.5 C
24.12.2003 22:00 -8.8 C 75 % 1032.7 hPa 0.0 l/m 1.0 km/h (0 Bft) O-SO -12.4 C -8.9 C
24.12.2003 23:00 -9.0 C 76 % 1032.8 hPa 0.0 l/m 2.2 km/h (1 Bft) O-SO -12.4 C -10.0 C
25.12.2003 00:00 -8.6 C 77 % 1032.6 hPa 0.0 l/m 0.6 km/h (0 Bft) O-SO -11.9 C -8.7 C
25.12.2003 01:00 -8.3 C 76 % 1032.6 hPa 0.0 l/m 0.0 km/h (0 Bft) N -11.8 C -8.3 C
25.12.2003 02:00 -8.7 C 75 % 1032.6 hPa 0.0 l/m 1.8 km/h (1 Bft) O-SO -12.2 C -8.9 C
25.12.2003 03:00 -9.0 C 75 % 1032.6 hPa 0.0 l/m 3.8 km/h (1 Bft) O-SO -12.6 C -10.8 C
25.12.2003 04:00 -9.4 C 74 % 1032.6 hPa 0.0 l/m 5.1 km/h (1 Bft) O-SO -13.1 C -12.0 C
25.12.2003 05:00 -9.7 C 74 % 1032.6 hPa 0.0 l/m 2.7 km/h (1 Bft) O-SO -13.4 C -10.5 C
25.12.2003 06:00 -10.0 C 75 % 1032.6 hPa 0.0 l/m 3.4 km/h (1 Bft) O-SO -13.6 C -11.2 C
25.12.2003 07:00 -9.9 C 75 % 1032.6 hPa 0.0 l/m 3.9 km/h (1 Bft) O-SO -13.5 C -11.2 C
25.12.2003 08:00 -9.4 C 76 % 1032.6 hPa 0.0 l/m 3.8 km/h (1 Bft) O-SO -12.9 C -10.6 C
25.12.2003 09:00 -7.9 C 75 % 1032.6 hPa 0.0 l/m 0.2 km/h (0 Bft) O-SO -11.5 C -8.0 C
25.12.2003 10:00 -6.8 C 72 % 1032.3 hPa 0.0 l/m 1.6 km/h (1 Bft) SO -11.0 C -7.0 C
25.12.2003 11:00 -5.5 C 69 % 1031.5 hPa 0.0 l/m 4.7 km/h (1 Bft) SO -10.3 C -7.4 C
25.12.2003 12:00 -4.0 C 66 % 1030.6 hPa 0.0 l/m 6.7 km/h (2 Bft) O-SO -9.5 C -6.6 C
25.12.2003 13:00 -2.4 C 62 % 1029.5 hPa 0.0 l/m 4.1 km/h (1 Bft) O-SO -8.7 C -3.8 C
25.12.2003 14:00 -1.4 C 62 % 1029.5 hPa 0.0 l/m 2.5 km/h (1 Bft) S-SO -7.7 C -2.2 C
25.12.2003 15:00 -1.7 C 63 % 1029.5 hPa 0.0 l/m 1.8 km/h (1 Bft) SO -7.9 C -2.1 C
25.12.2003 16:00 -2.8 C 65 % 1029.5 hPa 0.0 l/m 0.0 km/h (0 Bft) SO -8.6 C -2.8 C
25.12.2003 17:00 -4.0 C 70 % 1029.5 hPa 0.0 l/m 1.0 km/h (0 Bft) SO -8.6 C -4.2 C
25.12.2003 18:00 -4.9 C 75 % 1029.0 hPa 0.0 l/m 1.9 km/h (1 Bft) SO -8.5 C -5.4 C
25.12.2003 19:00 -5.6 C 77 % 1028.5 hPa 0.0 l/m 2.9 km/h (1 Bft) SO -8.9 C -5.9 C
25.12.2003 20:00 -6.4 C 79 % 1028.5 hPa 0.0 l/m 0.8 km/h (0 Bft) SO -9.4 C -6.5 C
25.12.2003 21:00 -6.9 C 79 % 1028.2 hPa 0.0 l/m 4.5 km/h (1 Bft) SO -9.9 C -8.1 C
25.12.2003 22:00 -7.1 C 79 % 1027.7 hPa 0.0 l/m 3.5 km/h (1 Bft) O-SO -10.1 C -8.6 C
25.12.2003 23:00 -7.6 C 79 % 1027.4 hPa 0.0 l/m 3.4 km/h (1 Bft) O-SO -10.6 C -9.0 C
26.12.2003 00:00 -8.0 C 79 % 1027.0 hPa 0.0 l/m 0.8 km/h (0 Bft) O-SO -10.9 C -8.3 C
26.12.2003 01:00 -8.4 C 79 % 1026.4 hPa 0.0 l/m 0.2 km/h (0 Bft) O-SO -11.4 C -8.4 C
26.12.2003 02:00 -8.3 C 79 % 1026.4 hPa 0.0 l/m 0.0 km/h (0 Bft) N -11.3 C -8.3 C
26.12.2003 03:00 -8.4 C 79 % 1026.2 hPa 0.0 l/m 0.9 km/h (0 Bft) O-SO -11.4 C -8.7 C
26.12.2003 04:00 -8.6 C 78 % 1025.3 hPa 0.0 l/m 0.6 km/h (0 Bft) SO -11.7 C -8.9 C
26.12.2003 05:00 -8.7 C 77 % 1024.5 hPa 0.0 l/m 0.6 km/h (0 Bft) O-SO -11.9 C -8.8 C
26.12.2003 06:00 -8.9 C 77 % 1024.3 hPa 0.0 l/m 1.2 km/h (1 Bft) O-SO -12.1 C -9.2 C
26.12.2003 07:00 -8.8 C 77 % 1024.3 hPa 0.0 l/m 1.5 km/h (1 Bft) O-SO -12.0 C -9.3 C
26.12.2003 08:00 -8.7 C 78 % 1024.2 hPa 0.0 l/m 3.3 km/h (1 Bft) O-SO -11.9 C -9.9 C
26.12.2003 09:00 -7.7 C 81 % 1023.3 hPa 0.0 l/m 0.2 km/h (0 Bft) N -10.3 C -7.8 C
26.12.2003 10:00 -6.1 C 81 % 1023.2 hPa 0.0 l/m 0.2 km/h (0 Bft) O-SO -8.8 C -6.1 C
26.12.2003 11:00 -4.8 C 78 % 1021.7 hPa 0.0 l/m 0.2 km/h (0 Bft) NW -8.0 C -4.8 C
26.12.2003 12:00 -3.2 C 74 % 1020.2 hPa 0.0 l/m 0.1 km/h (0 Bft) N -7.2 C -3.2 C
26.12.2003 13:00 -1.0 C 68 % 1019.1 hPa 0.0 l/m 0.1 km/h (0 Bft) N -6.1 C -1.0 C
26.12.2003 14:00 0.6 C 69 % 1018.2 hPa 0.0 l/m 0.3 km/h (0 Bft) NW -4.4 C 0.6 C
26.12.2003 15:00 0.3 C 70 % 1018.1 hPa 0.0 l/m 0.1 km/h (0 Bft) N -4.5 C 0.3 C
26.12.2003 16:00 -1.2 C 73 % 1017.6 hPa 0.0 l/m 0.0 km/h (0 Bft) N -5.4 C -1.2 C
26.12.2003 17:00 -2.3 C 77 % 1017.0 hPa 0.0 l/m 0.0 km/h (0 Bft) N -5.8 C -2.3 C
26.12.2003 18:00 -3.2 C 79 % 1016.2 hPa 0.0 l/m 0.3 km/h (0 Bft) NW -6.4 C -3.2 C
26.12.2003 19:00 -3.7 C 82 % 1016.0 hPa 0.0 l/m 0.2 km/h (0 Bft) NW -6.4 C -3.7 C
26.12.2003 20:00 -4.1 C 83 % 1016.0 hPa 0.0 l/m 0.5 km/h (0 Bft) NW -6.5 C -4.2 C
26.12.2003 21:00 -4.0 C 84 % 1016.0 hPa 0.0 l/m 0.0 km/h (0 Bft) N -6.2 C -4.0 C
26.12.2003 22:00 -3.9 C 85 % 1015.2 hPa 0.0 l/m 0.7 km/h (0 Bft) NW -6.1 C -4.0 C
26.12.2003 23:00 -3.9 C 85 % 1014.9 hPa 0.0 l/m 0.0 km/h (0 Bft) N -6.0 C -3.9 C
27.12.2003 00:00 -4.0 C 85 % 1014.5 hPa 0.0 l/m 0.0 km/h (0 Bft) N -6.1 C -4.0 C
27.12.2003 01:00 -4.0 C 86 % 1013.9 hPa 0.0 l/m 0.0 km/h (0 Bft) N -6.0 C -4.0 C
27.12.2003 02:00 -4.2 C 86 % 1013.5 hPa 0.0 l/m 0.0 km/h (0 Bft) N -6.3 C -4.2 C
27.12.2003 03:00 -4.4 C 85 % 1012.8 hPa 0.0 l/m 0.0 km/h (0 Bft) N -6.5 C -4.4 C
27.12.2003 04:00 -4.3 C 86 % 1012.0 hPa 0.0 l/m 0.1 km/h (0 Bft) N -6.2 C -4.3 C
27.12.2003 05:00 -4.0 C 87 % 1011.0 hPa 0.0 l/m 0.6 km/h (0 Bft) NW -5.9 C -4.0 C
27.12.2003 06:00 -3.8 C 87 % 1010.8 hPa 0.0 l/m 0.0 km/h (0 Bft) N -5.6 C -3.8 C
27.12.2003 07:00 -3.6 C 88 % 1010.8 hPa 0.0 l/m 0.0 km/h (0 Bft) N -5.3 C -3.6 C
27.12.2003 08:00 -3.4 C 89 % 1010.8 hPa 0.0 l/m 0.4 km/h (0 Bft) SW -4.9 C -3.5 C
27.12.2003 09:00 -2.5 C 90 % 1010.8 hPa 0.0 l/m 0.3 km/h (0 Bft) N -4.0 C -2.5 C
27.12.2003 10:00 -1.4 C 87 % 1010.8 hPa 0.0 l/m 0.0 km/h (0 Bft) N -3.4 C -1.4 C
27.12.2003 11:00 -0.5 C 85 % 1010.8 hPa 0.0 l/m 0.5 km/h (0 Bft) SO -2.7 C -0.7 C
27.12.2003 12:00 0.1 C 86 % 1010.1 hPa 0.0 l/m 0.0 km/h (0 Bft) N -2.0 C 0.1 C
27.12.2003 13:00 0.9 C 84 % 1009.7 hPa 0.0 l/m 1.3 km/h (1 Bft) O-SO -1.5 C 0.7 C
27.12.2003 14:00 1.1 C 84 % 1009.7 hPa 0.0 l/m 1.7 km/h (1 Bft) O-SO -1.2 C 0.7 C
27.12.2003 15:00 1.5 C 85 % 1010.6 hPa 0.0 l/m 0.3 km/h (0 Bft) O-SO -0.7 C 1.5 C
27.12.2003 16:00 1.7 C 89 % 1010.8 hPa 0.0 l/m 3.8 km/h (1 Bft) O-SO 0.0 C 0.7 C
27.12.2003 17:00 1.4 C 92 % 1010.8 hPa 0.0 l/m 0.5 km/h (0 Bft) S-SW 0.2 C 1.3 C
27.12.2003 18:00 1.2 C 94 % 1010.1 hPa 0.0 l/m 0.0 km/h (0 Bft) N 0.4 C 1.2 C
27.12.2003 19:00 0.5 C 93 % 1009.7 hPa 0.0 l/m 1.3 km/h (1 Bft) S -0.4 C 0.3 C
27.12.2003 20:00 -0.7 C 90 % 1008.7 hPa 0.0 l/m 0.0 km/h (0 Bft) N -2.1 C -0.7 C
27.12.2003 21:00 -1.0 C 94 % 1008.3 hPa 0.0 l/m 0.0 km/h (0 Bft) N -1.9 C -1.0 C
27.12.2003 22:00 -1.6 C 94 % 1007.6 hPa 0.0 l/m 0.1 km/h (0 Bft) S -2.5 C -1.6 C
27.12.2003 23:00 -2.3 C 90 % 1007.0 hPa 0.0 l/m 2.5 km/h (1 Bft) O-SO -3.7 C -3.0 C
28.12.2003 00:00 -2.2 C 95 % 1005.9 hPa 0.0 l/m 2.6 km/h (1 Bft) O-SO -2.9 C -3.2 C
28.12.2003 01:00 -1.9 C 100 % 1004.7 hPa 0.0 l/m 0.0 km/h (0 Bft) N -1.9 C -1.9 C
28.12.2003 02:00 -1.8 C 100 % 1003.9 hPa 0.0 l/m 0.6 km/h (0 Bft) S -1.8 C -1.9 C
28.12.2003 03:00 -2.1 C 97 % 1003.1 hPa 0.0 l/m 1.8 km/h (1 Bft) SO -2.6 C -2.4 C
28.12.2003 04:00 -2.3 C 94 % 1001.8 hPa 0.0 l/m 0.8 km/h (0 Bft) SO -3.2 C -2.6 C
28.12.2003 05:00 -2.3 C 99 % 1000.7 hPa 0.0 l/m 0.6 km/h (0 Bft) SO -2.4 C -2.3 C
28.12.2003 06:00 -1.9 C 100 % 1000.4 hPa 0.0 l/m 1.6 km/h (1 Bft) SO -1.9 C -2.3 C
28.12.2003 07:00 -1.4 C 100 % 1000.4 hPa 0.0 l/m 0.3 km/h (0 Bft) SO -1.4 C -1.4 C
28.12.2003 08:00 -1.1 C 100 % 1000.4 hPa 0.0 l/m 0.1 km/h (0 Bft) N -1.1 C -1.1 C
28.12.2003 09:00 -0.7 C 100 % 1000.4 hPa 0.0 l/m 0.4 km/h (0 Bft) SO -0.7 C -0.7 C
28.12.2003 10:00 -0.5 C 100 % 1000.1 hPa 0.0 l/m 0.0 km/h (0 Bft) N -0.5 C -0.5 C
28.12.2003 11:00 -0.1 C 100 % 999.8 hPa 0.0 l/m 0.7 km/h (0 Bft) SO -0.1 C -0.1 C
28.12.2003 12:00 0.6 C 100 % 999.0 hPa 0.0 l/m 1.6 km/h (1 Bft) SW 0.6 C 0.2 C
28.12.2003 13:00 0.7 C 100 % 999.0 hPa 0.0 l/m 0.2 km/h (0 Bft) SW 0.7 C 0.7 C
28.12.2003 14:00 0.8 C 100 % 999.7 hPa 0.0 l/m 3.4 km/h (1 Bft) SW 0.8 C -0.2 C
28.12.2003 15:00 1.1 C 100 % 1000.8 hPa 0.3 l/m 5.8 km/h (2 Bft) O-SO 1.1 C -0.6 C
28.12.2003 16:00 2.0 C 98 % 1002.1 hPa 0.7 l/m 4.3 km/h (1 Bft) SO 1.7 C 1.0 C
28.12.2003 17:00 3.1 C 96 % 1004.1 hPa 2.1 l/m 3.6 km/h (1 Bft) W 2.5 C 2.3 C
28.12.2003 18:00 3.6 C 95 % 1005.5 hPa 0.0 l/m 5.3 km/h (1 Bft) W-NW 2.8 C 2.7 C
28.12.2003 19:00 3.5 C 86 % 1007.1 hPa 0.3 l/m 39.7 km/h (6 Bft) W-NW 1.4 C -2.6 C
28.12.2003 20:00 3.5 C 79 % 1008.1 hPa 0.0 l/m 36.7 km/h (5 Bft) W-NW 0.2 C -2.5 C
28.12.2003 21:00 3.3 C 79 % 1008.7 hPa 0.0 l/m 26.2 km/h (4 Bft) W-NW -0.1 C -1.7 C
28.12.2003 22:00 3.1 C 78 % 1009.4 hPa 0.0 l/m 28.5 km/h (4 Bft) W-NW -0.4 C -2.2 C
28.12.2003 23:00 2.6 C 81 % 1009.7 hPa 0.0 l/m 23.6 km/h (4 Bft) W-NW -0.4 C -2.4 C
Min-Datum _ 24.12.03 24.12.03 28.12.03 - 22.12.03 - 24.12.03 25.12.03
_ Min-Zeit 06:30 14:54 12:43 - 00:30 - 06:30 03:54
Minimum _ -10.6 C 53 % 998.3 hPa - 0.0 km/h (0 Bft) - -14.3 C -14.4 C
Max-Datum _ 28.12.03 28.12.03 24.12.03 28.12.03 28.12.03 - 28.12.03 28.12.03
_ Max-Zeit 17:52 00:09 08:51 16:00 19:04 - 17:52 17:52
Maximum _ 3.9 C 100 % 1033.7 hPa 2.1 l/m 55.6 km/h
W-NW (7 Bft)
- 3.2 C 3.9 C
Durchschnitt _ -3.6 C 81 % 1020.7 hPa #5.2 l/m 3.6 km/h (1 Bft) O-SO -6.4 C -4.6 C

Durchschnitt Minimum Temp.-4.1 C
Durchschnitt Maximum Temp.-3.1 C
© Kaiko 2003